Time;durP1;ratioP1;P1;durP2;ratioP2;P2;SDS_P1;SDS_P2;PMS_P1;PMS_P2;Temp;Humidity;BMP_temperature;BMP_pressure;BME280_temperature;BME280_humidity;BME280_pressure;Samples;Min_cycle;Max_cycle;Signal;HPM_P1;HPM_P2
2023/04/18 00:01:47;;;;;;;10.07;8.18;;;9.20;99.90;;;;;;4975911;28;20423;-96
2023/04/18 00:04:13;;;;;;;8.40;7.60;;;9.10;99.90;;;;;;4975689;28;20086;-96
2023/04/18 00:06:39;;;;;;;8.20;7.40;;;9.20;99.90;;;;;;4975621;28;20070;-95
2023/04/18 00:09:04;;;;;;;8.40;7.55;;;9.40;99.90;;;;;;4975463;28;20037;-95
2023/04/18 00:11:30;;;;;;;8.63;7.40;;;9.20;99.90;;;;;;4975522;28;20054;-96
2023/04/18 00:13:57;;;;;;;9.00;8.10;;;9.30;99.90;;;;;;4974035;28;20073;-95
2023/04/18 00:16:23;;;;;;;9.52;8.55;;;8.80;99.90;;;;;;4975594;28;20034;-96
2023/04/18 00:18:50;;;;;;;11.23;9.23;;;8.60;99.90;;;;;;4975497;28;20047;-95
2023/04/18 00:21:16;;;;;;;9.40;8.50;;;8.30;99.90;;;;;;4975442;28;20109;-95
2023/04/18 00:23:42;;;;;;;9.35;8.45;;;8.40;99.90;;;;;;4974424;28;20065;-96
2023/04/18 00:26:08;;;;;;;9.57;8.50;;;8.60;99.90;;;;;;4975533;28;20063;-95
2023/04/18 00:28:33;;;;;;;9.35;8.40;;;9.00;99.90;;;;;;4974663;28;20086;-95
2023/04/18 00:30:59;;;;;;;11.07;8.65;;;9.00;99.90;;;;;;4975132;28;20022;-96
2023/04/18 00:33:25;;;;;;;10.98;9.07;;;8.80;99.90;;;;;;4974911;28;20098;-96
2023/04/18 00:35:53;;;;;;;10.40;9.30;;;8.80;99.90;;;;;;4975195;28;20054;-95
2023/04/18 00:38:18;;;;;;;9.13;7.85;;;8.90;99.90;;;;;;4974983;28;20062;-95
2023/04/18 00:40:44;;;;;;;8.27;7.47;;;8.90;99.90;;;;;;4975438;28;20043;-96
2023/04/18 00:43:12;;;;;;;9.40;7.75;;;8.80;99.90;;;;;;4974241;28;20033;-95
2023/04/18 00:45:38;;;;;;;8.50;7.60;;;8.80;99.90;;;;;;4974809;28;20398;-96
2023/04/18 00:48:04;;;;;;;8.70;7.80;;;8.80;99.90;;;;;;4974714;28;20035;-96
2023/04/18 00:50:30;;;;;;;8.38;7.43;;;8.70;99.90;;;;;;4974826;28;20027;-96
2023/04/18 00:52:56;;;;;;;10.95;7.78;;;8.70;99.90;;;;;;4973806;28;20027;-95
2023/04/18 00:55:23;;;;;;;9.88;7.57;;;8.70;99.90;;;;;;4974579;28;20027;-95
2023/04/18 00:57:49;;;;;;;8.68;7.80;;;8.80;99.90;;;;;;4974019;28;20031;-95
2023/04/18 01:00:15;;;;;;;10.35;7.75;;;8.80;99.90;;;;;;4974593;28;20034;-95
2023/04/18 01:02:40;;;;;;;8.50;7.60;;;8.70;99.90;;;;;;4974734;28;20031;-95
2023/04/18 01:05:06;;;;;;;8.65;7.45;;;8.90;99.90;;;;;;4974723;28;20491;-95
2023/04/18 01:07:36;;;;;;;8.70;7.70;;;8.50;99.90;;;;;;4974703;28;20387;-96
2023/04/18 01:10:03;;;;;;;9.25;7.90;;;8.40;99.90;;;;;;4973720;28;20042;-95
2023/04/18 01:12:28;;;;;;;8.43;7.57;;;8.40;99.90;;;;;;4974361;28;20446;-95
2023/04/18 01:14:54;;;;;;;8.88;7.97;;;8.40;99.90;;;;;;4973922;28;20059;-96
2023/04/18 01:17:21;;;;;;;8.32;7.53;;;8.50;99.90;;;;;;4974203;28;20018;-95
2023/04/18 01:19:46;;;;;;;8.80;7.90;;;8.40;99.90;;;;;;4974829;28;20140;-95
2023/04/18 01:22:16;;;;;;;8.20;7.40;;;8.40;99.90;;;;;;4974532;28;20054;-95
2023/04/18 01:24:42;;;;;;;8.48;7.50;;;8.30;99.90;;;;;;4974637;28;20558;-95
2023/04/18 01:27:11;;;;;;;7.97;7.18;;;8.50;99.90;;;;;;4973938;28;20051;-95
2023/04/18 01:29:36;;;;;;;7.70;6.93;;;8.30;99.90;;;;;;4974969;28;20043;-95
2023/04/18 01:32:02;;;;;;;8.93;7.55;;;8.00;99.90;;;;;;4973438;28;20467;-95
2023/04/18 01:34:28;;;;;;;9.10;7.40;;;8.10;99.90;;;;;;4974539;28;20035;-95
2023/04/18 01:36:53;;;;;;;9.23;8.32;;;8.20;99.90;;;;;;4974579;28;20030;-95
2023/04/18 01:39:19;;;;;;;8.73;7.18;;;8.30;99.90;;;;;;4973316;28;20117;-95
2023/04/18 01:41:45;;;;;;;8.65;7.65;;;8.60;99.90;;;;;;4973738;28;20034;-95
2023/04/18 01:44:10;;;;;;;9.70;7.75;;;8.50;99.90;;;;;;4974408;28;20023;-95
2023/04/18 01:46:36;;;;;;;8.65;7.85;;;8.50;99.90;;;;;;4973071;28;20422;-95
2023/04/18 01:49:02;;;;;;;8.93;7.55;;;8.30;99.90;;;;;;4973185;28;20034;-95
2023/04/18 01:51:27;;;;;;;10.52;8.18;;;8.20;99.90;;;;;;4974750;28;20384;-96
2023/04/18 01:53:53;;;;;;;9.50;8.23;;;8.60;99.90;;;;;;4973797;28;20023;-96
2023/04/18 01:56:19;;;;;;;9.13;7.90;;;8.40;99.90;;;;;;4974165;28;20030;-96
2023/04/18 01:58:45;;;;;;;9.25;8.00;;;8.10;99.90;;;;;;4972786;28;20054;-96
2023/04/18 02:01:10;;;;;;;8.38;7.40;;;8.10;99.90;;;;;;4973037;28;20389;-96
2023/04/18 02:03:36;;;;;;;9.63;8.15;;;8.10;99.90;;;;;;4975999;28;20030;-95
2023/04/18 02:06:03;;;;;;;8.82;7.93;;;8.40;99.90;;;;;;4977866;28;20038;-95
2023/04/18 02:08:31;;;;;;;8.82;7.95;;;8.00;99.90;;;;;;4977553;28;20051;-95
2023/04/18 02:10:57;;;;;;;10.23;7.75;;;8.00;99.90;;;;;;4977170;28;20099;-95
2023/04/18 02:13:23;;;;;;;13.35;8.27;;;8.00;99.90;;;;;;4976679;28;20129;-96
2023/04/18 02:15:49;;;;;;;9.63;8.02;;;7.80;99.90;;;;;;4977792;28;20554;-95
2023/04/18 02:18:16;;;;;;;9.32;8.00;;;7.90;99.90;;;;;;4977671;28;20050;-95
2023/04/18 02:20:41;;;;;;;10.20;7.90;;;8.10;99.90;;;;;;4977574;28;20090;-96
2023/04/18 02:23:08;;;;;;;10.63;7.68;;;8.00;99.90;;;;;;4976810;28;20035;-95
2023/04/18 02:25:33;;;;;;;9.35;8.15;;;7.70;99.90;;;;;;4976223;28;20027;-95
2023/04/18 02:27:59;;;;;;;8.63;7.18;;;7.80;99.90;;;;;;4977383;28;20114;-95
2023/04/18 02:30:25;;;;;;;10.38;7.50;;;7.80;99.90;;;;;;4977449;28;20031;-96
2023/04/18 02:32:52;;;;;;;9.20;7.55;;;7.80;99.90;;;;;;4977251;28;20527;-95
2023/04/18 02:35:19;;;;;;;9.02;7.95;;;7.80;99.90;;;;;;4976178;28;20051;-95
2023/04/18 02:37:45;;;;;;;8.88;7.82;;;7.70;99.90;;;;;;4977166;28;20043;-95
2023/04/18 02:40:11;;;;;;;7.60;6.82;;;7.60;99.90;;;;;;4976772;28;20034;-95
2023/04/18 02:42:37;;;;;;;8.13;7.38;;;7.40;99.90;;;;;;4977631;28;20050;-96
2023/04/18 02:45:03;;;;;;;9.38;7.60;;;7.60;99.90;;;;;;4976002;28;20030;-94
2023/04/18 02:47:29;;;;;;;10.55;7.88;;;7.50;99.90;;;;;;4977007;28;20102;-95
2023/04/18 02:49:55;;;;;;;8.60;7.70;;;7.60;99.90;;;;;;4976693;28;20090;-95
2023/04/18 02:52:20;;;;;;;8.35;7.55;;;7.70;99.90;;;;;;4976107;28;20029;-95
2023/04/18 02:54:46;;;;;;;9.25;7.90;;;7.60;99.90;;;;;;4975310;28;20034;-95
2023/04/18 02:57:11;;;;;;;11.20;8.18;;;7.60;99.90;;;;;;4976017;28;20050;-95
2023/04/18 02:59:37;;;;;;;8.25;7.45;;;7.80;99.90;;;;;;4975582;28;20057;-96
2023/04/18 03:02:03;;;;;;;8.80;7.82;;;7.60;99.90;;;;;;4976788;28;20042;-95
2023/04/18 03:04:28;;;;;;;8.77;7.32;;;7.50;99.90;;;;;;4976716;28;20054;-95
2023/04/18 03:06:55;;;;;;;9.13;7.82;;;7.80;99.90;;;;;;4975703;28;20464;-95
2023/04/18 03:09:20;;;;;;;9.15;7.65;;;7.40;99.90;;;;;;4976179;28;20051;-95
2023/04/18 03:11:46;;;;;;;9.90;8.30;;;7.40;99.90;;;;;;4976242;28;20085;-95
2023/04/18 03:14:12;;;;;;;9.43;8.52;;;7.30;99.90;;;;;;4976238;28;20035;-95
2023/04/18 03:16:37;;;;;;;8.07;7.28;;;7.30;99.90;;;;;;4976519;28;20026;-95
2023/04/18 03:19:04;;;;;;;9.27;7.57;;;7.60;99.90;;;;;;4976516;28;20503;-95
2023/04/18 03:21:29;;;;;;;9.40;7.05;;;7.70;99.90;;;;;;4976534;28;20022;-95
2023/04/18 03:23:55;;;;;;;9.25;8.30;;;7.90;99.90;;;;;;4975938;28;20047;-95
2023/04/18 03:26:23;;;;;;;13.48;9.43;;;7.20;99.90;;;;;;4976042;28;20038;-95
2023/04/18 03:28:48;;;;;;;10.82;8.52;;;7.00;99.90;;;;;;4975717;28;20376;-95
2023/04/18 03:31:14;;;;;;;11.10;9.48;;;7.10;99.90;;;;;;4976156;28;20030;-94
2023/04/18 03:33:41;;;;;;;11.38;9.13;;;7.00;99.90;;;;;;4976382;28;20027;-95
2023/04/18 03:36:07;;;;;;;9.88;8.88;;;6.90;99.90;;;;;;4976427;28;20019;-95
2023/04/18 03:38:33;;;;;;;11.60;8.65;;;6.80;99.90;;;;;;4975627;28;20043;-95
2023/04/18 03:40:59;;;;;;;10.07;8.98;;;6.90;99.90;;;;;;4976059;28;20451;-95
2023/04/18 03:43:24;;;;;;;11.55;8.68;;;7.10;99.90;;;;;;4975874;28;20038;-96
2023/04/18 03:45:50;;;;;;;10.23;8.27;;;7.20;99.90;;;;;;4981167;28;20513;-95
2023/04/18 03:48:16;;;;;;;12.10;8.95;;;7.20;99.90;;;;;;4995185;28;20037;-95
2023/04/18 03:50:42;;;;;;;9.40;8.50;;;7.30;99.90;;;;;;4995310;28;20486;-95
2023/04/18 03:53:08;;;;;;;9.80;8.73;;;7.30;99.90;;;;;;4993833;28;20026;-95
2023/04/18 03:55:33;;;;;;;10.70;8.63;;;7.30;99.90;;;;;;4995545;28;20053;-94
2023/04/18 03:57:59;;;;;;;10.70;8.73;;;7.30;99.90;;;;;;4994058;28;20462;-95
2023/04/18 04:00:25;;;;;;;11.15;8.68;;;7.20;99.90;;;;;;4975603;28;20035;-95
2023/04/18 04:02:51;;;;;;;9.38;8.20;;;7.30;99.90;;;;;;4974590;28;20110;-95
2023/04/18 04:05:17;;;;;;;10.55;8.95;;;7.90;99.90;;;;;;4975876;28;20030;-95
2023/04/18 04:07:42;;;;;;;10.25;8.05;;;7.60;99.90;;;;;;4975263;28;20019;-95
2023/04/18 04:10:09;;;;;;;10.77;8.43;;;7.60;99.90;;;;;;4975633;28;20098;-96
2023/04/18 04:12:34;;;;;;;10.30;9.20;;;7.70;99.90;;;;;;4975517;28;20484;-95
2023/04/18 04:15:00;;;;;;;9.70;8.35;;;7.80;99.90;;;;;;4975810;28;20042;-95
2023/04/18 04:17:26;;;;;;;11.60;8.50;;;7.70;99.90;;;;;;4975400;28;20027;-96
2023/04/18 04:19:52;;;;;;;11.55;8.50;;;7.60;99.90;;;;;;4975142;28;20023;-94
2023/04/18 04:22:17;;;;;;;10.50;8.77;;;7.70;99.90;;;;;;4975967;28;20034;-96
2023/04/18 04:24:43;;;;;;;10.15;9.15;;;7.80;99.90;;;;;;4974374;28;20039;-95
2023/04/18 04:27:11;;;;;;;9.45;8.45;;;7.70;99.90;;;;;;4973701;28;20498;-95
2023/04/18 04:29:38;;;;;;;11.77;8.75;;;7.60;99.90;;;;;;4975072;28;20525;-95
2023/04/18 04:32:04;;;;;;;10.70;8.98;;;7.70;99.90;;;;;;4975350;28;20030;-95
2023/04/18 04:34:30;;;;;;;11.68;8.70;;;7.90;99.90;;;;;;4974988;28;20029;-95
2023/04/18 04:36:56;;;;;;;10.25;9.20;;;7.90;99.90;;;;;;4974926;28;20577;-95
2023/04/18 04:39:21;;;;;;;13.52;9.48;;;7.90;99.90;;;;;;4974990;28;20019;-95
2023/04/18 04:41:48;;;;;;;18.85;10.98;;;7.80;99.90;;;;;;4975104;28;20054;-95
2023/04/18 04:44:16;;;;;;;13.40;9.32;;;7.80;99.90;;;;;;4975103;28;20487;-95
2023/04/18 04:46:43;;;;;;;12.90;9.77;;;7.70;99.90;;;;;;4974902;28;20034;-95
2023/04/18 04:49:10;;;;;;;13.73;10.35;;;7.70;99.90;;;;;;4974618;28;20046;-95
2023/04/18 04:51:36;;;;;;;16.77;9.65;;;7.60;99.90;;;;;;4974668;28;20042;-95
2023/04/18 04:54:02;;;;;;;9.88;8.75;;;8.00;99.90;;;;;;4974935;28;20035;-95
2023/04/18 04:56:27;;;;;;;11.18;8.85;;;7.50;99.90;;;;;;4974321;28;20027;-94
2023/04/18 04:58:54;;;;;;;14.32;10.15;;;7.60;99.90;;;;;;4974405;28;20106;-95
2023/04/18 05:01:20;;;;;;;12.98;9.32;;;7.70;99.90;;;;;;4975050;28;20125;-95
2023/04/18 05:03:46;;;;;;;13.20;10.30;;;7.90;99.90;;;;;;4974981;28;20503;-95
2023/04/18 05:06:12;;;;;;;15.82;10.32;;;8.60;99.90;;;;;;4974592;28;20115;-95
2023/04/18 05:08:38;;;;;;;14.40;9.75;;;8.20;99.90;;;;;;4974891;28;20487;-96
2023/04/18 05:11:04;;;;;;;12.80;10.65;;;8.20;99.90;;;;;;4974484;28;20031;-95
2023/04/18 05:13:30;;;;;;;15.63;10.00;;;8.10;99.90;;;;;;4973342;28;20089;-95
2023/04/18 05:15:58;;;;;;;15.35;10.18;;;8.10;99.90;;;;;;4973977;28;20027;-95
2023/04/18 05:18:23;;;;;;;17.08;10.18;;;8.20;99.90;;;;;;4974444;28;20086;-96
2023/04/18 05:20:49;;;;;;;12.73;9.63;;;7.90;99.90;;;;;;4974407;28;20031;-95
2023/04/18 05:23:15;;;;;;;13.80;10.02;;;8.00;99.90;;;;;;4974456;28;20038;-95
2023/04/18 05:25:40;;;;;;;13.30;11.18;;;8.00;99.90;;;;;;4974752;28;20141;-95
2023/04/18 05:28:07;;;;;;;12.38;9.48;;;8.00;99.90;;;;;;4974706;28;20114;-95
2023/04/18 05:30:33;;;;;;;13.27;10.93;;;8.20;99.90;;;;;;4974493;28;20038;-96
2023/04/18 05:32:58;;;;;;;14.27;11.20;;;8.20;99.90;;;;;;4974025;28;20035;-95
2023/04/18 05:35:24;;;;;;;15.07;12.20;;;8.50;99.90;;;;;;4974302;28;20149;-95
2023/04/18 05:37:50;;;;;;;14.38;12.27;;;8.30;99.90;;;;;;4976617;28;20023;-95
2023/04/18 05:40:16;;;;;;;17.17;13.05;;;8.40;99.90;;;;;;4978136;28;20023;-95
2023/04/18 05:42:41;;;;;;;15.48;13.07;;;8.50;99.90;;;;;;4977163;28;20696;-95
2023/04/18 05:45:07;;;;;;;13.63;12.25;;;8.30;99.90;;;;;;4976982;28;20085;-94
2023/04/18 05:47:33;;;;;;;15.43;12.95;;;8.40;99.90;;;;;;4976577;28;20121;-96
2023/04/18 05:49:58;;;;;;;17.08;13.00;;;8.60;99.90;;;;;;4977484;28;20039;-95
2023/04/18 05:52:27;;;;;;;16.45;12.60;;;8.80;99.90;;;;;;4976944;28;20097;-95
2023/04/18 05:54:53;;;;;;;14.40;12.90;;;8.80;99.90;;;;;;4976685;28;20027;-95
2023/04/18 05:57:18;;;;;;;15.88;12.60;;;8.80;99.90;;;;;;4977884;28;20031;-95
2023/04/18 05:59:44;;;;;;;14.07;12.57;;;8.90;99.90;;;;;;4977580;28;20058;-96
2023/04/18 06:02:12;;;;;;;14.32;12.82;;;9.00;99.90;;;;;;4976464;28;20031;-95
2023/04/18 06:04:41;;;;;;;14.25;12.48;;;8.80;99.90;;;;;;4977741;28;20038;-95
2023/04/18 06:07:07;;;;;;;16.17;12.82;;;9.00;99.90;;;;;;4977199;28;20088;-95
2023/04/18 06:09:33;;;;;;;14.75;13.23;;;9.00;99.90;;;;;;4978076;28;20579;-95
2023/04/18 06:12:00;;;;;;;14.48;12.60;;;9.10;99.90;;;;;;4978317;28;20109;-88
2023/04/18 06:14:26;;;;;;;14.15;12.63;;;9.20;99.90;;;;;;4979064;28;20027;-93
2023/04/18 06:16:52;;;;;;;14.23;12.82;;;9.20;99.90;;;;;;4978870;28;20161;-90
2023/04/18 06:19:17;;;;;;;15.38;12.73;;;9.20;99.90;;;;;;4977372;28;20543;-91
2023/04/18 06:21:43;;;;;;;14.60;12.65;;;9.40;99.90;;;;;;4977351;28;20027;-91
2023/04/18 06:24:08;;;;;;;14.63;13.13;;;9.40;99.90;;;;;;4976378;28;20042;-92
2023/04/18 06:26:34;;;;;;;14.38;12.88;;;9.50;99.90;;;;;;4975946;28;20027;-91
2023/04/18 06:29:00;;;;;;;14.77;13.27;;;9.50;99.90;;;;;;4976237;28;20035;-91
2023/04/18 06:31:26;;;;;;;13.85;12.35;;;9.50;99.90;;;;;;4975483;28;20801;-91
2023/04/18 06:33:51;;;;;;;13.43;12.07;;;9.60;99.90;;;;;;4976861;28;20038;-91
2023/04/18 06:36:18;;;;;;;14.35;12.85;;;9.50;99.90;;;;;;4976650;28;20034;-91
2023/04/18 06:38:43;;;;;;;14.00;12.48;;;9.60;99.90;;;;;;4975640;28;20050;-90
2023/04/18 06:41:09;;;;;;;14.10;12.70;;;9.80;99.90;;;;;;4975679;28;20031;-91
2023/04/18 06:43:35;;;;;;;14.10;12.60;;;9.90;99.90;;;;;;4976653;28;20026;-91
2023/04/18 06:46:03;;;;;;;14.60;12.57;;;9.80;99.90;;;;;;4976114;28;20488;-91
2023/04/18 06:48:28;;;;;;;13.63;12.23;;;9.80;99.90;;;;;;4976140;28;20069;-91
2023/04/18 06:50:54;;;;;;;13.80;12.30;;;9.60;99.90;;;;;;4976647;28;20062;-91
2023/04/18 06:53:20;;;;;;;12.95;11.57;;;10.10;99.90;;;;;;4975414;28;20038;-90
2023/04/18 06:55:45;;;;;;;14.00;12.40;;;9.70;99.90;;;;;;4975616;28;20105;-91
2023/04/18 06:58:12;;;;;;;14.10;12.60;;;9.80;99.90;;;;;;4976849;28;20051;-91
2023/04/18 07:00:38;;;;;;;14.93;13.43;;;9.70;99.90;;;;;;4975987;28;20030;-91
2023/04/18 07:03:08;;;;;;;13.40;12.00;;;9.70;99.90;;;;;;4976502;28;20035;-91
2023/04/18 07:05:35;;;;;;;13.95;12.52;;;9.80;99.90;;;;;;4976579;28;20031;-91
2023/04/18 07:08:01;;;;;;;13.63;12.20;;;9.90;99.90;;;;;;4976231;28;20031;-91
2023/04/18 07:10:26;;;;;;;13.57;12.05;;;9.80;99.90;;;;;;4976268;28;20406;-91
2023/04/18 07:12:52;;;;;;;14.38;12.18;;;9.90;99.90;;;;;;4976757;28;20060;-91
2023/04/18 07:15:17;;;;;;;13.32;11.93;;;10.00;99.90;;;;;;4976749;28;20035;-91
2023/04/18 07:17:43;;;;;;;14.02;12.63;;;10.20;99.90;;;;;;4976269;28;20467;-91
2023/04/18 07:20:10;;;;;;;13.93;12.10;;;10.20;99.90;;;;;;4976087;28;20061;-91
2023/04/18 07:22:36;;;;;;;13.77;12.38;;;10.30;99.90;;;;;;4976090;28;20495;-91
2023/04/18 07:25:02;;;;;;;13.25;11.88;;;10.30;99.90;;;;;;4974805;28;20038;-90
2023/04/18 07:27:27;;;;;;;13.55;11.63;;;10.30;99.90;;;;;;4976272;28;20391;-91
2023/04/18 07:29:53;;;;;;;14.13;11.50;;;10.30;99.90;;;;;;4974348;28;20416;-91
2023/04/18 07:32:19;;;;;;;12.70;11.40;;;10.20;99.90;;;;;;4976383;28;20023;-91
2023/04/18 07:34:44;;;;;;;13.40;12.10;;;10.10;99.90;;;;;;4976074;28;20074;-91
2023/04/18 07:37:11;;;;;;;13.93;11.50;;;10.10;99.90;;;;;;4974694;28;20073;-91
2023/04/18 07:39:37;;;;;;;13.10;11.77;;;10.30;99.90;;;;;;4975703;28;20027;-91
2023/04/18 07:42:03;;;;;;;12.82;11.52;;;10.40;99.90;;;;;;4975786;28;20038;-90
2023/04/18 07:44:29;;;;;;;12.90;11.60;;;10.40;99.90;;;;;;4975228;28;20030;-91
2023/04/18 07:46:54;;;;;;;13.80;12.40;;;10.90;99.90;;;;;;4989531;28;20027;-91
2023/04/18 07:49:20;;;;;;;12.15;10.70;;;10.60;99.90;;;;;;4993792;28;20034;-91
2023/04/18 07:51:46;;;;;;;12.80;11.57;;;10.70;99.90;;;;;;4995232;28;20034;-91
2023/04/18 07:54:11;;;;;;;13.75;11.95;;;10.80;99.90;;;;;;4995061;28;20045;-91
2023/04/18 07:56:37;;;;;;;12.10;11.00;;;10.90;99.90;;;;;;4994677;28;20437;-91
2023/04/18 07:59:02;;;;;;;13.07;11.73;;;10.90;99.90;;;;;;4985082;28;20423;-91
2023/04/18 08:01:28;;;;;;;11.85;10.65;;;11.00;99.90;;;;;;4974323;28;20109;-90
2023/04/18 08:03:56;;;;;;;12.73;11.43;;;11.20;99.90;;;;;;4975516;28;20572;-91
2023/04/18 08:06:22;;;;;;;12.07;10.80;;;11.30;99.90;;;;;;4975173;28;20030;-91
2023/04/18 08:08:47;;;;;;;12.52;11.25;;;11.60;99.90;;;;;;4974023;28;20492;-91
2023/04/18 08:11:13;;;;;;;13.38;11.25;;;11.40;99.90;;;;;;4973764;28;20035;-91
2023/04/18 08:13:38;;;;;;;12.65;11.35;;;11.30;99.90;;;;;;4974672;28;20102;-90
2023/04/18 08:16:04;;;;;;;13.10;11.18;;;11.30;99.90;;;;;;4973645;28;20031;-91
2023/04/18 08:18:30;;;;;;;13.73;11.95;;;11.30;99.90;;;;;;4974716;28;20491;-90
2023/04/18 08:20:55;;;;;;;14.10;11.88;;;11.40;99.90;;;;;;4974854;28;20031;-90
2023/04/18 08:23:21;;;;;;;14.75;11.77;;;11.30;99.90;;;;;;4974707;28;20026;-90
2023/04/18 08:25:47;;;;;;;13.45;12.07;;;11.20;99.90;;;;;;4975314;28;20101;-90
2023/04/18 08:28:12;;;;;;;13.45;12.07;;;11.20;99.90;;;;;;4973303;28;20122;-90
2023/04/18 08:30:38;;;;;;;12.40;11.18;;;10.80;99.90;;;;;;4974146;28;20557;-90
2023/04/18 08:33:04;;;;;;;14.52;12.90;;;10.80;99.90;;;;;;4974367;28;20483;-90
2023/04/18 08:35:29;;;;;;;12.95;11.73;;;10.80;99.90;;;;;;4974729;28;20039;-90
2023/04/18 08:37:55;;;;;;;13.15;11.85;;;11.00;99.90;;;;;;4975095;28;20115;-90
2023/04/18 08:40:21;;;;;;;13.70;12.30;;;11.20;99.90;;;;;;4973324;28;20031;-90
2023/04/18 08:42:48;;;;;;;12.25;11.05;;;11.40;99.90;;;;;;4974213;28;20031;-91
2023/04/18 08:45:13;;;;;;;12.90;11.60;;;11.60;99.90;;;;;;4974299;28;20450;-90
2023/04/18 08:47:40;;;;;;;12.27;11.07;;;11.80;99.90;;;;;;4974660;28;20022;-90
2023/04/18 08:50:08;;;;;;;11.68;10.52;;;11.90;99.90;;;;;;4974197;28;20035;-91
2023/04/18 08:52:36;;;;;;;12.77;11.48;;;11.50;99.90;;;;;;4974468;28;20027;-90
2023/04/18 08:55:02;;;;;;;11.38;10.00;;;11.50;99.90;;;;;;4974280;28;20502;-90
2023/04/18 08:57:29;;;;;;;12.80;11.48;;;11.60;99.90;;;;;;4973906;28;20026;-90
2023/04/18 08:59:55;;;;;;;12.95;11.32;;;12.00;99.90;;;;;;4973702;28;20065;-91
2023/04/18 09:02:33;;;;;;;12.60;11.30;;;12.20;99.90;;;;;;4974151;28;20468;-90
2023/04/18 09:04:59;;;;;;;12.55;11.20;;;12.50;99.90;;;;;;4974043;28;20139;-90
2023/04/18 09:07:29;;;;;;;12.07;10.88;;;12.70;99.90;;;;;;4974259;28;20082;-90
2023/04/18 09:09:57;;;;;;;11.52;10.43;;;12.70;99.90;;;;;;4972627;28;20078;-91
2023/04/18 09:12:25;;;;;;;11.98;10.73;;;12.70;99.90;;;;;;4972256;28;20113;-91
2023/04/18 09:15:11;;;;;;;11.77;10.52;;;13.00;99.90;;;;;;4974470;28;20463;-90
2023/04/18 09:17:44;;;;;;;12.30;11.10;;;13.10;99.90;;;;;;4973906;28;20031;-90
2023/04/18 09:20:10;;;;;;;11.32;10.23;;;13.10;99.90;;;;;;4973708;28;20073;-91
2023/04/18 09:22:50;;;;;;;11.82;10.57;;;12.90;99.90;;;;;;4973812;28;20506;-90
2023/04/18 09:25:33;;;;;;;11.45;10.35;;;13.00;99.90;;;;;;4973476;28;20405;-90
2023/04/18 09:28:00;;;;;;;12.90;11.55;;;12.90;99.90;;;;;;4973819;28;20097;-90
2023/04/18 09:30:38;;;;;;;13.10;10.38;;;13.00;99.90;;;;;;4973642;28;20150;-90
2023/04/18 09:33:08;;;;;;;12.40;10.25;;;13.30;99.90;;;;;;4973653;28;20027;-91
2023/04/18 09:35:35;;;;;;;11.20;10.20;;;13.50;99.90;;;;;;4974057;28;20117;-91
2023/04/18 09:38:00;;;;;;;10.50;9.55;;;13.50;99.90;;;;;;4965524;28;20027;-96
2023/04/18 09:40:26;;;;;;;11.40;10.40;;;13.60;99.90;;;;;;4969594;28;20510;-93
2023/04/18 09:42:53;;;;;;;10.88;9.77;;;13.70;99.90;;;;;;4960484;28;20038;-92
2023/04/18 09:45:19;;;;;;;10.32;9.30;;;14.10;99.90;;;;;;4957801;28;20024;-94
2023/04/18 09:47:45;;;;;;;11.48;10.30;;;14.20;99.90;;;;;;4985719;28;20050;-92
2023/04/18 09:50:11;;;;;;;10.18;9.27;;;14.10;99.90;;;;;;4958698;28;20043;-91
2023/04/18 09:52:41;;;;;;;10.90;9.80;;;14.50;99.90;;;;;;4955111;28;20028;-95
2023/04/18 09:55:09;;;;;;;10.90;9.80;;;14.60;99.90;;;;;;4955631;28;20038;-94
2023/04/18 09:57:39;;;;;;;11.00;9.90;;;14.60;99.90;;;;;;4956263;28;20031;-91
2023/04/18 10:00:16;;;;;;;11.43;10.32;;;14.80;99.90;;;;;;4967732;28;20082;-92
2023/04/18 10:03:03;;;;;;;13.98;12.57;;;15.00;99.90;;;;;;4974029;28;20019;-92
2023/04/18 10:05:33;;;;;;;12.20;10.90;;;15.00;99.90;;;;;;4964220;28;20034;-93
2023/04/18 10:07:59;;;;;;;13.13;11.93;;;14.70;99.90;;;;;;4954943;29;20031;-95
2023/04/18 10:10:25;;;;;;;11.00;10.00;;;14.60;99.90;;;;;;4955955;28;20078;-91
2023/04/18 10:12:55;;;;;;;10.88;9.75;;;14.80;99.90;;;;;;4955582;28;20023;-91
2023/04/18 10:15:26;;;;;;;11.15;10.05;;;15.00;99.90;;;;;;4954851;29;20054;-89
2023/04/18 10:18:00;;;;;;;22.65;20.40;;;14.80;99.90;;;;;;4964443;28;20126;-89
2023/04/18 10:20:30;;;;;;;63.63;46.35;;;14.90;99.90;;;;;;4961189;28;20039;-90
2023/04/18 10:22:57;;;;;;;10.85;9.85;;;15.20;99.90;;;;;;4953453;28;20019;-90
2023/04/18 10:25:38;;;;;;;13.82;11.88;;;15.50;99.90;;;;;;4956938;29;20056;-90
2023/04/18 10:28:08;;;;;;;10.48;9.57;;;15.30;99.90;;;;;;4957248;29;20027;-90
2023/04/18 10:30:39;;;;;;;10.52;9.48;;;15.70;99.90;;;;;;4957401;29;20519;-90
2023/04/18 10:33:32;;;;;;;9.77;8.98;;;15.50;99.90;;;;;;4956728;29;20027;-89
2023/04/18 10:36:14;;;;;;;10.27;9.32;;;15.80;99.90;;;;;;4957403;29;20027;-90
2023/04/18 10:38:45;;;;;;;10.70;9.80;;;16.40;99.90;;;;;;4956896;29;20027;-90
2023/04/18 10:41:16;;;;;;;9.90;9.07;;;16.60;99.90;;;;;;4956944;29;20051;-90
2023/04/18 10:44:16;;;;;;;11.43;10.35;;;16.60;99.90;;;;;;4956942;29;20030;-89
2023/04/18 10:47:07;;;;;;;10.23;9.32;;;16.30;99.90;;;;;;4981135;28;20037;-89
2023/04/18 10:49:35;;;;;;;10.30;9.50;;;17.40;99.90;;;;;;4995461;28;20050;-90
2023/04/18 10:52:04;;;;;;;10.85;9.95;;;18.10;99.90;;;;;;4995087;28;20273;-90
2023/04/18 10:54:36;;;;;;;10.32;9.43;;;17.60;99.90;;;;;;4995513;28;20109;-90
2023/04/18 10:57:03;;;;;;;10.60;9.65;;;18.30;99.90;;;;;;4995177;28;20533;-89
2023/04/18 10:59:30;;;;;;;10.88;9.98;;;18.50;99.90;;;;;;4982304;28;20046;-90
2023/04/18 11:02:32;;;;;;;10.02;9.05;;;19.10;99.90;;;;;;4976110;28;20055;-90
2023/04/18 11:05:00;;;;;;;10.82;9.90;;;19.30;99.90;;;;;;4974955;28;20051;-91
2023/04/18 11:07:47;;;;;;;11.20;10.18;;;20.00;99.90;;;;;;4975466;28;20046;-91
2023/04/18 11:10:17;;;;;;;9.75;8.63;;;20.60;99.90;;;;;;4975685;28;20443;-90
2023/04/18 11:12:43;;;;;;;10.05;9.23;;;20.00;99.90;;;;;;4975936;28;20115;-90
2023/04/18 11:15:16;;;;;;;10.63;9.63;;;19.40;99.90;;;;;;4976477;28;20031;-90
2023/04/18 11:17:42;;;;;;;9.93;9.00;;;20.30;99.90;;;;;;4975724;28;20031;-90
2023/04/18 11:20:13;;;;;;;10.90;10.02;;;21.90;99.90;;;;;;4975857;28;20426;-90
2023/04/18 11:22:47;;;;;;;9.25;8.55;;;21.60;99.90;;;;;;4975018;28;20466;-90
2023/04/18 11:25:13;;;;;;;9.27;8.43;;;21.90;99.90;;;;;;4975796;28;20479;-91
2023/04/18 11:27:50;;;;;;;9.95;9.15;;;21.80;99.90;;;;;;4973986;28;20037;-90
2023/04/18 11:30:16;;;;;;;9.85;9.05;;;21.80;99.90;;;;;;4975617;28;20042;-90
2023/04/18 11:32:42;;;;;;;9.65;8.85;;;21.80;99.90;;;;;;4973949;28;20026;-91
2023/04/18 11:35:10;;;;;;;10.60;9.80;;;21.50;99.90;;;;;;4974825;28;20027;-90
2023/04/18 11:37:36;;;;;;;9.63;8.93;;;20.50;99.90;;;;;;4974858;28;20027;-90
2023/04/18 11:40:04;;;;;;;10.15;9.30;;;20.20;99.90;;;;;;4975242;28;20526;-90
2023/04/18 11:42:35;;;;;;;9.52;8.73;;;20.40;99.90;;;;;;4975168;28;20042;-90
2023/04/18 11:45:02;;;;;;;10.05;9.25;;;21.80;99.90;;;;;;4974219;28;20037;-91
2023/04/18 11:47:30;;;;;;;13.93;12.63;;;22.50;99.90;;;;;;4975056;28;20103;-91
2023/04/18 11:50:00;;;;;;;12.15;11.15;;;22.70;99.90;;;;;;4974604;28;20047;-91
2023/04/18 11:52:28;;;;;;;8.77;7.90;;;23.20;99.90;;;;;;4973647;28;20475;-91
2023/04/18 11:54:55;;;;;;;8.48;7.88;;;24.10;99.90;;;;;;4973745;28;20037;-91
2023/04/18 11:57:25;;;;;;;8.75;8.05;;;24.20;99.90;;;;;;4974730;28;20101;-91
2023/04/18 11:59:58;;;;;;;9.32;8.63;;;23.80;99.90;;;;;;4974659;28;20117;-91
2023/04/18 12:02:26;;;;;;;8.77;8.07;;;24.30;99.90;;;;;;4974723;28;20050;-90
2023/04/18 12:04:59;;;;;;;8.75;8.15;;;24.20;99.90;;;;;;4974806;28;20504;-91
2023/04/18 12:07:41;;;;;;;8.02;7.43;;;24.10;99.90;;;;;;4974870;28;20034;-91
2023/04/18 12:10:25;;;;;;;8.95;8.25;;;22.40;99.90;;;;;;4974633;28;20039;-91
2023/04/18 12:12:54;;;;;;;8.68;7.97;;;24.20;99.90;;;;;;4974794;28;20054;-91
2023/04/18 12:15:22;;;;;;;8.20;7.55;;;25.20;99.90;;;;;;4974599;28;20034;-91
2023/04/18 12:17:51;;;;;;;8.43;7.72;;;26.60;99.90;;;;;;4974472;28;20415;-91
2023/04/18 12:20:17;;;;;;;7.85;7.13;;;26.30;99.90;;;;;;4974123;28;20080;-91
2023/04/18 12:22:50;;;;;;;8.45;7.85;;;27.10;99.90;;;;;;4974429;28;20065;-91
2023/04/18 12:25:21;;;;;;;8.65;7.95;;;27.50;99.90;;;;;;4974710;28;20085;-91
2023/04/18 12:27:52;;;;;;;8.32;7.72;;;27.20;99.90;;;;;;4974379;28;20471;-90
2023/04/18 12:30:22;;;;;;;8.18;7.57;;;27.70;99.90;;;;;;4974332;28;20109;-92
2023/04/18 12:32:49;;;;;;;7.97;7.38;;;28.20;99.90;;;;;;4974338;28;20015;-90
2023/04/18 12:35:16;;;;;;;7.28;6.78;;;28.60;99.90;;;;;;4973737;28;20030;-91
2023/04/18 12:37:42;;;;;;;7.78;7.15;;;28.80;99.90;;;;;;4973669;28;20071;-91
2023/04/18 12:40:09;;;;;;;8.73;8.02;;;28.10;99.90;;;;;;4974209;28;20070;-91
2023/04/18 12:42:35;;;;;;;8.68;8.00;;;28.20;99.90;;;;;;4974112;28;20035;-90
2023/04/18 12:45:02;;;;;;;9.32;8.73;;;28.60;99.90;;;;;;4973911;28;20031;-91